Check out our new PWSWeather beta!
PWSweather.com
Personal Weather Stations
Station Observations

YeovilGB

Lat: 50.949, Lon: -2.627

Elevation: 70

Station Type: Vantage Pro

http://www.yeovil-weather.me.uk/

High Low Average
Temperature 51.5°F10.8°C 48.2°F9.0°C 49.8°F9.9°C
Dew Point 50.1°F10.1°C 47.5°F8.6°C 48.7°F9.3°C
Winds 5.8 mph 9.3 kmh Calm Calm 1.0 mph S1.6 kmh S
Wind Gusts 13.8 mph22.2 kmh -- 2.0 mph3.2 kmh
Humidity 98% 93% 96%
Pressure 29.65 in1004.1 mb 29.52 in999.7 mb -
Precipitation 0.00 in0.0 mm - -
Hour Temp Dew Point Humidity Winds Wind Gusts Pressure Precip Precip Rate Daily Precip Total
12:00 AM 48.5°F9.2°C 47.7°F8.7°C 97% Calm Calm -- 29.52 in999.7 mb - 0.00 in0.0 mm 0.00 in0.0 mm
12:10 AM 48.5°F9.2°C 47.7°F8.7°C 97% Calm Calm -- 29.52 in999.7 mb - 0.00 in0.0 mm 0.00 in0.0 mm
12:20 AM 48.4°F9.1°C 47.6°F8.7°C 97% Calm Calm 1.2 mph1.9 kmh 29.52 in999.7 mb - 0.00 in0.0 mm 0.00 in0.0 mm
12:30 AM 48.4°F9.1°C 47.6°F8.7°C 97% Calm Calm -- 29.52 in999.7 mb - 0.00 in0.0 mm 0.00 in0.0 mm
12:40 AM 48.5°F9.2°C 47.6°F8.7°C 97% Calm Calm -- 29.53 in1000.0 mb - 0.00 in0.0 mm 0.00 in0.0 mm
12:50 AM 48.5°F9.2°C 47.7°F8.7°C 97% Calm Calm -- 29.53 in1000.0 mb - 0.00 in0.0 mm 0.00 in0.0 mm
01:00 AM 48.4°F9.1°C 47.6°F8.7°C 97% Calm Calm 1.2 mph1.9 kmh 29.53 in1000.0 mb - 0.00 in0.0 mm 0.00 in0.0 mm
01:10 AM 48.3°F9.1°C 47.5°F8.6°C 97% Calm Calm -- 29.53 in1000.0 mb - 0.00 in0.0 mm 0.00 in0.0 mm
01:20 AM 48.3°F9.1°C 47.5°F8.6°C 97% Calm Calm -- 29.53 in1000.0 mb - 0.00 in0.0 mm 0.00 in0.0 mm
01:30 AM 48.3°F9.1°C 47.5°F8.6°C 97% Calm Calm -- 29.53 in1000.0 mb - 0.00 in0.0 mm 0.00 in0.0 mm
01:40 AM 48.3°F9.1°C 47.5°F8.6°C 97% Calm Calm 1.2 mph1.9 kmh 29.53 in1000.0 mb - 0.00 in0.0 mm 0.00 in0.0 mm
01:50 AM 48.3°F9.1°C 47.5°F8.6°C 97% Calm Calm -- 29.53 in1000.0 mb - 0.00 in0.0 mm 0.00 in0.0 mm
02:00 AM 48.3°F9.1°C 47.5°F8.6°C 97% Calm Calm -- 29.54 in1000.3 mb - 0.00 in0.0 mm 0.00 in0.0 mm
02:10 AM 48.3°F9.1°C 47.5°F8.6°C 97% Calm Calm -- 29.54 in1000.3 mb - 0.00 in0.0 mm 0.00 in0.0 mm
02:20 AM 48.3°F9.1°C 47.5°F8.6°C 97% Calm Calm -- 29.55 in1000.7 mb - 0.00 in0.0 mm 0.00 in0.0 mm
02:30 AM 48.3°F9.1°C 47.5°F8.6°C 97% Calm Calm -- 29.55 in1000.7 mb - 0.00 in0.0 mm 0.00 in0.0 mm
02:40 AM 48.3°F9.1°C 47.5°F8.6°C 97% Calm Calm -- 29.55 in1000.7 mb - 0.00 in0.0 mm 0.00 in0.0 mm
02:50 AM 48.3°F9.1°C 47.5°F8.6°C 97% Calm Calm -- 29.56 in1001.0 mb - 0.00 in0.0 mm 0.00 in0.0 mm
03:00 AM 48.4°F9.1°C 47.6°F8.7°C 97% Calm Calm -- 29.56 in1001.0 mb - 0.00 in0.0 mm 0.00 in0.0 mm
03:10 AM 48.5°F9.2°C 47.7°F8.7°C 97% Calm Calm 5.8 mph9.3 kmh 29.56 in1001.0 mb - 0.00 in0.0 mm 0.00 in0.0 mm
03:20 AM 48.5°F9.2°C 48.0°F8.9°C 98% Calm Calm -- 29.56 in1001.0 mb - 0.00 in0.0 mm 0.00 in0.0 mm
03:30 AM 48.5°F9.2°C 48.0°F8.9°C 98% Calm Calm -- 29.56 in1001.0 mb - 0.00 in0.0 mm 0.00 in0.0 mm
03:40 AM 48.6°F9.2°C 48.0°F8.9°C 98% Calm Calm -- 29.57 in1001.4 mb - 0.00 in0.0 mm 0.00 in0.0 mm
03:50 AM 48.6°F9.2°C 48.1°F8.9°C 98% 1.2 mph NW1.9 kmh NW 2.3 mph3.7 kmh 29.57 in1001.4 mb - 0.00 in0.0 mm 0.00 in0.0 mm
04:00 AM 48.6°F9.2°C 48.1°F8.9°C 98% Calm Calm -- 29.57 in1001.4 mb - 0.00 in0.0 mm 0.00 in0.0 mm
04:10 AM 48.6°F9.2°C 48.1°F8.9°C 98% Calm Calm -- 29.57 in1001.4 mb - 0.00 in0.0 mm 0.00 in0.0 mm
04:20 AM 48.6°F9.2°C 48.1°F8.9°C 98% Calm Calm -- 29.57 in1001.4 mb - 0.00 in0.0 mm 0.00 in0.0 mm
04:30 AM 48.6°F9.2°C 48.0°F8.9°C 98% Calm Calm -- 29.58 in1001.7 mb - 0.00 in0.0 mm 0.00 in0.0 mm
04:40 AM 48.5°F9.2°C 48.0°F8.9°C 98% Calm Calm -- 29.58 in1001.7 mb - 0.00 in0.0 mm 0.00 in0.0 mm
04:50 AM 48.5°F9.2°C 48.0°F8.9°C 98% Calm Calm -- 29.58 in1001.7 mb - 0.00 in0.0 mm 0.00 in0.0 mm
05:00 AM 48.5°F9.2°C 48.0°F8.9°C 98% Calm Calm -- 29.58 in1001.7 mb - 0.00 in0.0 mm 0.00 in0.0 mm
05:10 AM 48.5°F9.2°C 48.0°F8.9°C 98% Calm Calm -- 29.58 in1001.7 mb - 0.00 in0.0 mm 0.00 in0.0 mm
05:20 AM 48.5°F9.2°C 48.0°F8.9°C 98% Calm Calm -- 29.58 in1001.7 mb - 0.00 in0.0 mm 0.00 in0.0 mm
05:30 AM 48.5°F9.2°C 47.7°F8.7°C 97% Calm Calm -- 29.59 in1002.0 mb - 0.00 in0.0 mm 0.00 in0.0 mm
05:40 AM 48.5°F9.2°C 47.7°F8.7°C 97% Calm Calm -- 29.59 in1002.0 mb - 0.00 in0.0 mm 0.00 in0.0 mm
05:50 AM 48.5°F9.2°C 47.7°F8.7°C 97% Calm Calm -- 29.59 in1002.0 mb - 0.00 in0.0 mm 0.00 in0.0 mm
06:00 AM 48.5°F9.2°C 47.7°F8.7°C 97% Calm Calm -- 29.59 in1002.0 mb - 0.00 in0.0 mm 0.00 in0.0 mm
06:10 AM 48.5°F9.2°C 47.7°F8.7°C 97% Calm Calm -- 29.59 in1002.0 mb - 0.00 in0.0 mm 0.00 in0.0 mm
06:20 AM 48.5°F9.2°C 47.7°F8.7°C 97% Calm Calm -- 29.60 in1002.4 mb - 0.00 in0.0 mm 0.00 in0.0 mm
06:30 AM 48.5°F9.2°C 47.7°F8.7°C 97% Calm Calm -- 29.61 in1002.7 mb - 0.00 in0.0 mm 0.00 in0.0 mm
06:40 AM 48.5°F9.2°C 47.7°F8.7°C 97% Calm Calm -- 29.61 in1002.7 mb - 0.00 in0.0 mm 0.00 in0.0 mm
06:50 AM 48.5°F9.2°C 47.7°F8.7°C 97% Calm Calm -- 29.61 in1002.7 mb - 0.00 in0.0 mm 0.00 in0.0 mm
07:00 AM 48.4°F9.1°C 47.6°F8.7°C 97% Calm Calm -- 29.61 in1002.7 mb - 0.00 in0.0 mm 0.00 in0.0 mm
07:10 AM 48.3°F9.1°C 47.5°F8.6°C 97% Calm Calm -- 29.61 in1002.7 mb - 0.00 in0.0 mm 0.00 in0.0 mm
07:20 AM 48.3°F9.1°C 47.5°F8.6°C 97% Calm Calm -- 29.61 in1002.7 mb - 0.00 in0.0 mm 0.00 in0.0 mm
07:30 AM 48.2°F9.0°C 47.7°F8.7°C 98% Calm Calm -- 29.62 in1003.0 mb - 0.00 in0.0 mm 0.00 in0.0 mm
07:40 AM 48.2°F9.0°C 47.7°F8.7°C 98% Calm Calm -- 29.62 in1003.0 mb - 0.00 in0.0 mm 0.00 in0.0 mm
07:50 AM 48.2°F9.0°C 47.7°F8.7°C 98% Calm Calm -- 29.63 in1003.4 mb - 0.00 in0.0 mm 0.00 in0.0 mm
08:00 AM 48.2°F9.0°C 47.7°F8.7°C 98% Calm Calm -- 29.63 in1003.4 mb - 0.00 in0.0 mm 0.00 in0.0 mm
08:10 AM 48.2°F9.0°C 47.7°F8.7°C 98% Calm Calm -- 29.63 in1003.4 mb - 0.00 in0.0 mm 0.00 in0.0 mm
08:20 AM 48.3°F9.1°C 47.8°F8.8°C 98% Calm Calm -- 29.64 in1003.7 mb - 0.00 in0.0 mm 0.00 in0.0 mm
08:30 AM 48.3°F9.1°C 47.8°F8.8°C 98% Calm Calm -- 29.64 in1003.7 mb - 0.00 in0.0 mm 0.00 in0.0 mm
08:40 AM 48.4°F9.1°C 47.9°F8.8°C 98% Calm Calm -- 29.64 in1003.7 mb - 0.00 in0.0 mm 0.00 in0.0 mm
08:50 AM 48.5°F9.2°C 47.7°F8.7°C 97% Calm Calm -- 29.64 in1003.7 mb - 0.00 in0.0 mm 0.00 in0.0 mm
09:00 AM 48.6°F9.2°C 48.1°F8.9°C 98% 2.3 mph S3.7 kmh S 5.8 mph9.3 kmh 29.64 in1003.7 mb - 0.00 in0.0 mm 0.00 in0.0 mm
09:10 AM 48.6°F9.2°C 48.1°F8.9°C 98% Calm Calm -- 29.64 in1003.7 mb - 0.00 in0.0 mm 0.00 in0.0 mm
09:20 AM 48.7°F9.3°C 48.2°F9.0°C 98% Calm Calm -- 29.64 in1003.7 mb - 0.00 in0.0 mm 0.00 in0.0 mm
09:30 AM 48.8°F9.3°C 48.3°F9.1°C 98% Calm Calm -- 29.64 in1003.7 mb - 0.00 in0.0 mm 0.00 in0.0 mm
09:40 AM 48.9°F9.4°C 48.1°F8.9°C 97% 1.2 mph S1.9 kmh S 3.5 mph5.6 kmh 29.64 in1003.7 mb - 0.00 in0.0 mm 0.00 in0.0 mm
09:50 AM 49.1°F9.5°C 48.6°F9.2°C 98% Calm Calm -- 29.64 in1003.7 mb - 0.00 in0.0 mm 0.00 in0.0 mm
10:00 AM 49.2°F9.6°C 48.7°F9.3°C 98% Calm Calm -- 29.65 in1004.1 mb - 0.00 in0.0 mm 0.00 in0.0 mm
10:10 AM 49.4°F9.7°C 48.8°F9.3°C 98% Calm Calm -- 29.65 in1004.1 mb - 0.00 in0.0 mm 0.00 in0.0 mm
10:20 AM 49.4°F9.7°C 48.6°F9.2°C 97% Calm Calm -- 29.65 in1004.1 mb - 0.00 in0.0 mm 0.00 in0.0 mm
10:30 AM 49.7°F9.8°C 48.9°F9.4°C 97% Calm Calm -- 29.65 in1004.1 mb - 0.00 in0.0 mm 0.00 in0.0 mm
10:40 AM 50.0°F10.0°C 49.4°F9.7°C 98% Calm Calm -- 29.65 in1004.1 mb - 0.00 in0.0 mm 0.00 in0.0 mm
10:50 AM 50.1°F10.1°C 49.2°F9.6°C 97% Calm Calm -- 29.65 in1004.1 mb - 0.00 in0.0 mm 0.00 in0.0 mm
11:00 AM 49.9°F9.9°C 49.1°F9.5°C 97% Calm Calm -- 29.65 in1004.1 mb - 0.00 in0.0 mm 0.00 in0.0 mm
11:10 AM 50.1°F10.1°C 49.3°F9.6°C 97% Calm Calm 2.3 mph3.7 kmh 29.64 in1003.7 mb - 0.00 in0.0 mm 0.00 in0.0 mm
11:20 AM 50.2°F10.1°C 49.4°F9.7°C 97% Calm Calm -- 29.64 in1003.7 mb - 0.00 in0.0 mm 0.00 in0.0 mm
11:30 AM 50.4°F10.2°C 49.6°F9.8°C 97% Calm Calm -- 29.64 in1003.7 mb - 0.00 in0.0 mm 0.00 in0.0 mm
11:40 AM 50.5°F10.3°C 49.7°F9.8°C 97% Calm Calm -- 29.64 in1003.7 mb - 0.00 in0.0 mm 0.00 in0.0 mm
11:50 AM 50.5°F10.3°C 49.7°F9.8°C 97% Calm Calm -- 29.64 in1003.7 mb - 0.00 in0.0 mm 0.00 in0.0 mm
12:00 PM 50.7°F10.4°C 49.9°F9.9°C 97% Calm Calm -- 29.64 in1003.7 mb - 0.00 in0.0 mm 0.00 in0.0 mm
12:10 PM 50.7°F10.4°C 49.6°F9.8°C 96% Calm Calm -- 29.64 in1003.7 mb - 0.00 in0.0 mm 0.00 in0.0 mm
12:20 PM 50.8°F10.4°C 49.7°F9.8°C 96% Calm Calm -- 29.63 in1003.4 mb - 0.00 in0.0 mm 0.00 in0.0 mm
12:30 PM 51.0°F10.6°C 49.9°F9.9°C 96% Calm Calm -- 29.63 in1003.4 mb - 0.00 in0.0 mm 0.00 in0.0 mm
12:40 PM 51.2°F10.7°C 49.8°F9.9°C 95% Calm Calm -- 29.63 in1003.4 mb - 0.00 in0.0 mm 0.00 in0.0 mm
12:50 PM 51.2°F10.7°C 49.8°F9.9°C 95% Calm Calm -- 29.63 in1003.4 mb - 0.00 in0.0 mm 0.00 in0.0 mm
01:00 PM 51.3°F10.7°C 49.9°F9.9°C 95% Calm Calm 1.2 mph1.9 kmh 29.63 in1003.4 mb - 0.00 in0.0 mm 0.00 in0.0 mm
01:10 PM 51.3°F10.7°C 49.9°F9.9°C 95% 2.3 mph SSE3.7 kmh SSE 4.6 mph7.4 kmh 29.63 in1003.4 mb - 0.00 in0.0 mm 0.00 in0.0 mm
01:20 PM 51.4°F10.8°C 50.0°F10.0°C 95% 1.2 mph S1.9 kmh S 3.5 mph5.6 kmh 29.63 in1003.4 mb - 0.00 in0.0 mm 0.00 in0.0 mm
01:40 PM 51.5°F10.8°C 50.1°F10.1°C 95% 3.5 mph SE5.6 kmh SE 6.9 mph11.1 kmh 29.63 in1003.4 mb - 0.00 in0.0 mm 0.00 in0.0 mm
01:50 PM 51.5°F10.8°C 49.8°F9.9°C 94% 3.5 mph SSE5.6 kmh SSE 5.8 mph9.3 kmh 29.62 in1003.0 mb - 0.00 in0.0 mm 0.00 in0.0 mm
02:00 PM 51.4°F10.8°C 49.7°F9.8°C 94% Calm Calm 1.2 mph1.9 kmh 29.62 in1003.0 mb - 0.00 in0.0 mm 0.00 in0.0 mm
02:10 PM 51.4°F10.8°C 49.8°F9.9°C 94% Calm Calm -- 29.62 in1003.0 mb - 0.00 in0.0 mm 0.00 in0.0 mm
02:20 PM 51.5°F10.8°C 49.8°F9.9°C 94% Calm Calm 2.3 mph3.7 kmh 29.61 in1002.7 mb - 0.00 in0.0 mm 0.00 in0.0 mm
02:30 PM 51.4°F10.8°C 49.8°F9.9°C 94% 1.2 mph SSE1.9 kmh SSE 4.6 mph7.4 kmh 29.61 in1002.7 mb - 0.00 in0.0 mm 0.00 in0.0 mm
02:40 PM 51.4°F10.8°C 49.7°F9.8°C 94% 1.2 mph SE1.9 kmh SE 5.8 mph9.3 kmh 29.61 in1002.7 mb - 0.00 in0.0 mm 0.00 in0.0 mm
02:50 PM 51.4°F10.8°C 49.7°F9.8°C 94% Calm Calm -- 29.61 in1002.7 mb - 0.00 in0.0 mm 0.00 in0.0 mm
03:00 PM 51.4°F10.8°C 49.7°F9.8°C 94% 2.3 mph S3.7 kmh S 8.1 mph13.0 kmh 29.62 in1003.0 mb - 0.00 in0.0 mm 0.00 in0.0 mm
03:10 PM 51.4°F10.8°C 49.7°F9.8°C 94% 2.3 mph SE3.7 kmh SE 4.6 mph7.4 kmh 29.61 in1002.7 mb - 0.00 in0.0 mm 0.00 in0.0 mm
03:20 PM 51.4°F10.8°C 49.7°F9.8°C 94% Calm Calm 4.6 mph7.4 kmh 29.61 in1002.7 mb - 0.00 in0.0 mm 0.00 in0.0 mm
03:30 PM 51.4°F10.8°C 49.7°F9.8°C 94% Calm Calm 4.6 mph7.4 kmh 29.61 in1002.7 mb - 0.00 in0.0 mm 0.00 in0.0 mm
03:40 PM 51.3°F10.7°C 49.6°F9.8°C 94% Calm Calm -- 29.61 in1002.7 mb - 0.00 in0.0 mm 0.00 in0.0 mm
03:50 PM 51.2°F10.7°C 49.5°F9.7°C 94% Calm Calm -- 29.61 in1002.7 mb - 0.00 in0.0 mm 0.00 in0.0 mm
04:00 PM 51.2°F10.7°C 49.5°F9.7°C 94% Calm Calm 1.2 mph1.9 kmh 29.60 in1002.4 mb - 0.00 in0.0 mm 0.00 in0.0 mm
04:10 PM 51.2°F10.7°C 49.5°F9.7°C 94% 1.2 mph SE1.9 kmh SE 4.6 mph7.4 kmh 29.60 in1002.4 mb - 0.00 in0.0 mm 0.00 in0.0 mm
04:20 PM 51.1°F10.6°C 49.7°F9.8°C 95% 4.6 mph SE7.4 kmh SE 6.9 mph11.1 kmh 29.60 in1002.4 mb - 0.00 in0.0 mm 0.00 in0.0 mm
04:30 PM 51.0°F10.6°C 49.4°F9.7°C 94% Calm Calm 3.5 mph5.6 kmh 29.60 in1002.4 mb - 0.00 in0.0 mm 0.00 in0.0 mm
04:40 PM 51.0°F10.6°C 49.6°F9.8°C 95% 1.2 mph SE1.9 kmh SE 3.5 mph5.6 kmh 29.59 in1002.0 mb - 0.00 in0.0 mm 0.00 in0.0 mm
04:50 PM 51.0°F10.6°C 49.6°F9.8°C 95% Calm Calm 2.3 mph3.7 kmh 29.59 in1002.0 mb - 0.00 in0.0 mm 0.00 in0.0 mm
05:00 PM 51.0°F10.6°C 49.6°F9.8°C 95% Calm Calm -- 29.60 in1002.4 mb - 0.00 in0.0 mm 0.00 in0.0 mm
05:10 PM 51.0°F10.6°C 49.6°F9.8°C 95% Calm Calm -- 29.59 in1002.0 mb - 0.00 in0.0 mm 0.00 in0.0 mm
05:20 PM 50.9°F10.5°C 49.5°F9.7°C 95% 1.2 mph SSE1.9 kmh SSE 4.6 mph7.4 kmh 29.59 in1002.0 mb - 0.00 in0.0 mm 0.00 in0.0 mm
05:30 PM 50.8°F10.4°C 49.4°F9.7°C 95% 3.5 mph SE5.6 kmh SE 5.8 mph9.3 kmh 29.59 in1002.0 mb - 0.00 in0.0 mm 0.00 in0.0 mm
05:40 PM 50.8°F10.4°C 49.4°F9.7°C 95% 1.2 mph SE1.9 kmh SE -- 29.59 in1002.0 mb - 0.00 in0.0 mm 0.00 in0.0 mm
05:50 PM 50.8°F10.4°C 49.7°F9.8°C 96% Calm Calm -- 29.59 in1002.0 mb - 0.00 in0.0 mm 0.00 in0.0 mm
06:00 PM 50.8°F10.4°C 49.4°F9.7°C 95% Calm Calm -- 29.59 in1002.0 mb - 0.00 in0.0 mm 0.00 in0.0 mm
06:10 PM 50.8°F10.4°C 49.4°F9.7°C 95% Calm Calm -- 29.59 in1002.0 mb - 0.00 in0.0 mm 0.00 in0.0 mm
06:20 PM 50.8°F10.4°C 49.7°F9.8°C 96% 1.2 mph SE1.9 kmh SE 4.6 mph7.4 kmh 29.59 in1002.0 mb - 0.00 in0.0 mm 0.00 in0.0 mm
06:30 PM 50.8°F10.4°C 49.7°F9.8°C 96% Calm Calm -- 29.59 in1002.0 mb - 0.00 in0.0 mm 0.00 in0.0 mm
06:40 PM 50.7°F10.4°C 49.6°F9.8°C 96% Calm Calm -- 29.59 in1002.0 mb - 0.00 in0.0 mm 0.00 in0.0 mm
06:50 PM 50.6°F10.3°C 49.5°F9.7°C 96% Calm Calm -- 29.59 in1002.0 mb - 0.00 in0.0 mm 0.00 in0.0 mm
07:00 PM 50.6°F10.3°C 49.5°F9.7°C 96% Calm Calm 5.8 mph9.3 kmh 29.59 in1002.0 mb - 0.00 in0.0 mm 0.00 in0.0 mm
07:10 PM 50.6°F10.3°C 49.5°F9.7°C 96% 1.2 mph SE1.9 kmh SE 4.6 mph7.4 kmh 29.59 in1002.0 mb - 0.00 in0.0 mm 0.00 in0.0 mm
07:20 PM 50.5°F10.3°C 49.4°F9.7°C 96% 1.2 mph SSE1.9 kmh SSE 6.9 mph11.1 kmh 29.60 in1002.4 mb - 0.00 in0.0 mm 0.00 in0.0 mm
07:30 PM 50.5°F10.3°C 49.4°F9.7°C 96% Calm Calm 4.6 mph7.4 kmh 29.60 in1002.4 mb - 0.00 in0.0 mm 0.00 in0.0 mm
07:40 PM 50.4°F10.2°C 49.3°F9.6°C 96% 2.3 mph SE3.7 kmh SE 4.6 mph7.4 kmh 29.60 in1002.4 mb - 0.00 in0.0 mm 0.00 in0.0 mm
07:50 PM 50.4°F10.2°C 49.3°F9.6°C 96% Calm Calm -- 29.59 in1002.0 mb - 0.00 in0.0 mm 0.00 in0.0 mm
08:00 PM 50.4°F10.2°C 49.3°F9.6°C 96% 2.3 mph SSE3.7 kmh SSE 6.9 mph11.1 kmh 29.59 in1002.0 mb - 0.00 in0.0 mm 0.00 in0.0 mm
08:10 PM 50.4°F10.2°C 49.3°F9.6°C 96% 5.8 mph SE9.3 kmh SE 9.2 mph14.8 kmh 29.59 in1002.0 mb - 0.00 in0.0 mm 0.00 in0.0 mm
08:20 PM 50.4°F10.2°C 49.3°F9.6°C 96% 1.2 mph SE1.9 kmh SE 9.2 mph14.8 kmh 29.59 in1002.0 mb - 0.00 in0.0 mm 0.00 in0.0 mm
08:30 PM 50.5°F10.3°C 49.4°F9.7°C 96% 2.3 mph SE3.7 kmh SE 4.6 mph7.4 kmh 29.59 in1002.0 mb - 0.00 in0.0 mm 0.00 in0.0 mm
08:40 PM 50.5°F10.3°C 49.4°F9.7°C 96% Calm Calm -- 29.59 in1002.0 mb - 0.00 in0.0 mm 0.00 in0.0 mm
08:50 PM 50.5°F10.3°C 49.4°F9.7°C 96% Calm Calm -- 29.59 in1002.0 mb - 0.00 in0.0 mm 0.00 in0.0 mm
09:00 PM 50.4°F10.2°C 49.0°F9.4°C 95% 1.2 mph SE1.9 kmh SE 3.5 mph5.6 kmh 29.58 in1001.7 mb - 0.00 in0.0 mm 0.00 in0.0 mm
09:10 PM 50.3°F10.2°C 48.9°F9.4°C 95% Calm Calm -- 29.58 in1001.7 mb - 0.00 in0.0 mm 0.00 in0.0 mm
09:20 PM 50.3°F10.2°C 48.9°F9.4°C 95% Calm Calm -- 29.58 in1001.7 mb - 0.00 in0.0 mm 0.00 in0.0 mm
09:30 PM 50.3°F10.2°C 48.9°F9.4°C 95% 5.8 mph SE9.3 kmh SE 13.8 mph22.2 kmh 29.58 in1001.7 mb - 0.00 in0.0 mm 0.00 in0.0 mm
09:40 PM 50.5°F10.3°C 49.1°F9.5°C 95% 1.2 mph SE1.9 kmh SE 9.2 mph14.8 kmh 29.58 in1001.7 mb - 0.00 in0.0 mm 0.00 in0.0 mm
09:50 PM 50.8°F10.4°C 49.4°F9.7°C 95% 2.3 mph SE3.7 kmh SE 11.5 mph18.5 kmh 29.57 in1001.4 mb - 0.00 in0.0 mm 0.00 in0.0 mm
10:00 PM 50.8°F10.4°C 49.4°F9.7°C 95% 3.5 mph SE5.6 kmh SE 8.1 mph13.0 kmh 29.57 in1001.4 mb - 0.00 in0.0 mm 0.00 in0.0 mm
10:10 PM 50.9°F10.5°C 49.2°F9.6°C 94% 3.5 mph SSE5.6 kmh SSE 11.5 mph18.5 kmh 29.57 in1001.4 mb - 0.00 in0.0 mm 0.00 in0.0 mm
10:20 PM 50.9°F10.5°C 49.2°F9.6°C 94% 2.3 mph SSE3.7 kmh SSE 12.7 mph20.4 kmh 29.56 in1001.0 mb - 0.00 in0.0 mm 0.00 in0.0 mm
10:30 PM 50.8°F10.4°C 49.1°F9.5°C 94% 2.3 mph SSE3.7 kmh SSE 11.5 mph18.5 kmh 29.56 in1001.0 mb - 0.00 in0.0 mm 0.00 in0.0 mm
10:40 PM 50.8°F10.4°C 49.1°F9.5°C 94% 2.3 mph SE3.7 kmh SE 9.2 mph14.8 kmh 29.56 in1001.0 mb - 0.00 in0.0 mm 0.00 in0.0 mm
10:50 PM 50.8°F10.4°C 48.8°F9.3°C 93% 1.2 mph SSE1.9 kmh SSE 10.4 mph16.7 kmh 29.55 in1000.7 mb - 0.00 in0.0 mm 0.00 in0.0 mm
11:00 PM 50.7°F10.4°C 48.7°F9.3°C 93% 3.5 mph SSE5.6 kmh SSE 9.2 mph14.8 kmh 29.56 in1001.0 mb - 0.00 in0.0 mm 0.00 in0.0 mm
11:10 PM 50.6°F10.3°C 48.7°F9.3°C 93% 1.2 mph SSE1.9 kmh SSE 6.9 mph11.1 kmh 29.56 in1001.0 mb - 0.00 in0.0 mm 0.00 in0.0 mm
11:20 PM 50.5°F10.3°C 48.6°F9.2°C 93% 2.3 mph SE3.7 kmh SE 9.2 mph14.8 kmh 29.56 in1001.0 mb - 0.00 in0.0 mm 0.00 in0.0 mm
11:30 PM 50.4°F10.2°C 48.5°F9.2°C 93% 1.2 mph SE1.9 kmh SE 11.5 mph18.5 kmh 29.56 in1001.0 mb - 0.00 in0.0 mm 0.00 in0.0 mm
11:40 PM 50.4°F10.2°C 48.5°F9.2°C 93% 2.3 mph SE3.7 kmh SE 11.5 mph18.5 kmh 29.56 in1001.0 mb - 0.00 in0.0 mm 0.00 in0.0 mm
11:50 PM 50.5°F10.3°C 48.6°F9.2°C 93% Calm Calm 2.3 mph3.7 kmh 29.56 in1001.0 mb - 0.00 in0.0 mm 0.00 in0.0 mm